createdAt,value
2019-05-07T00:00:56.901Z,4.50
2019-05-07T00:03:25.577Z,4.57
2019-05-07T00:05:54.136Z,4.37
2019-05-07T00:08:23.089Z,4.60
2019-05-07T00:10:52.947Z,4.37
2019-05-07T00:13:22.736Z,4.77
2019-05-07T00:15:52.811Z,4.43
2019-05-07T00:18:22.994Z,4.53
2019-05-07T00:20:52.968Z,5.17
2019-05-07T00:23:23.188Z,4.58
2019-05-07T00:25:52.945Z,5.28
2019-05-07T00:28:23.056Z,4.87
2019-05-07T00:30:52.157Z,5.08
2019-05-07T00:33:22.728Z,5.63
2019-05-07T00:35:58.385Z,4.97
2019-05-07T00:38:28.853Z,5.17
2019-05-07T00:41:08.036Z,5.03
2019-05-07T00:43:38.821Z,4.60
2019-05-07T00:46:10.298Z,4.57
2019-05-07T00:48:38.926Z,5.05
2019-05-07T00:51:28.841Z,4.30
2019-05-07T00:53:57.435Z,4.33
2019-05-07T00:56:26.039Z,5.17
2019-05-07T00:58:54.612Z,4.33
2019-05-07T01:01:23.993Z,5.20
2019-05-07T01:03:53.375Z,5.00
2019-05-07T01:06:26.012Z,5.10
2019-05-07T01:08:52.737Z,4.25
2019-05-07T01:11:22.635Z,4.25
2019-05-07T01:13:52.544Z,4.77
2019-05-07T01:16:22.226Z,4.72
2019-05-07T01:18:51.029Z,4.85
2019-05-07T01:21:19.626Z,5.30
2019-05-07T01:23:48.136Z,4.47
2019-05-07T01:26:16.790Z,5.00
2019-05-07T01:29:03.023Z,4.58
2019-05-07T01:31:34.929Z,4.73
2019-05-07T01:34:32.428Z,4.83
2019-05-07T01:37:02.716Z,4.57
2019-05-07T01:39:32.628Z,4.70
2019-05-07T01:42:02.116Z,5.60
2019-05-07T01:44:32.565Z,5.17
2019-05-07T01:47:02.503Z,4.87
2019-05-07T01:49:33.135Z,4.80
2019-05-07T01:52:02.513Z,5.47
2019-05-07T01:54:33.225Z,5.20
2019-05-07T01:57:02.848Z,5.50
2019-05-07T01:59:32.221Z,5.03
2019-05-07T02:02:06.248Z,5.03
2019-05-07T02:04:44.112Z,5.27
2019-05-07T02:07:22.780Z,5.42
2019-05-07T02:09:58.566Z,8.10
2019-05-07T02:12:31.968Z,5.80
2019-05-07T02:15:02.587Z,5.78
2019-05-07T02:17:32.154Z,4.47
2019-05-07T02:20:02.668Z,4.97
2019-05-07T02:22:32.048Z,5.53
2019-05-07T02:25:03.118Z,4.83
2019-05-07T02:27:32.838Z,5.50
2019-05-07T02:30:04.057Z,5.47
2019-05-07T02:32:33.503Z,5.13
2019-05-07T02:35:04.122Z,5.55
2019-05-07T02:37:48.369Z,4.67
2019-05-07T02:40:23.167Z,6.20
2019-05-07T02:42:53.972Z,4.85
2019-05-07T02:45:53.561Z,4.83
2019-05-07T02:48:25.437Z,4.87
2019-05-07T02:51:04.119Z,5.28
2019-05-07T02:53:43.072Z,5.47
2019-05-07T02:56:13.007Z,5.62
2019-05-07T02:58:43.381Z,5.55
2019-05-07T03:01:13.734Z,5.45
2019-05-07T03:03:44.958Z,5.62
2019-05-07T03:06:13.508Z,5.50
2019-05-07T03:08:44.110Z,5.85
2019-05-07T03:11:14.167Z,5.70
2019-05-07T03:13:43.420Z,5.93
2019-05-07T03:16:13.085Z,6.10
2019-05-07T03:18:43.789Z,5.55
2019-05-07T03:21:15.169Z,5.70
2019-05-07T03:24:03.687Z,5.50
2019-05-07T03:26:37.905Z,5.30
2019-05-07T03:29:13.056Z,5.77
2019-05-07T03:31:55.658Z,5.40
2019-05-07T03:34:36.681Z,5.50
2019-05-07T03:37:06.555Z,4.92
2019-05-07T03:39:35.331Z,4.77
2019-05-07T03:42:04.035Z,5.70
2019-05-07T03:44:44.472Z,5.53
2019-05-07T03:47:23.924Z,4.63
2019-05-07T03:49:53.588Z,5.10
2019-05-07T03:52:24.534Z,5.45
2019-05-07T03:54:54.085Z,5.83
2019-05-07T03:57:24.024Z,5.22
2019-05-07T03:59:53.834Z,5.27
2019-05-07T04:02:23.940Z,5.27
2019-05-07T04:04:54.578Z,5.67
2019-05-07T04:07:23.482Z,4.92
2019-05-07T04:09:53.467Z,5.70
2019-05-07T04:12:23.816Z,5.50
2019-05-07T04:14:53.619Z,5.10
2019-05-07T04:17:26.656Z,5.80
2019-05-07T04:19:53.301Z,4.93
2019-05-07T04:22:26.514Z,5.30
2019-05-07T04:25:13.260Z,5.28
2019-05-07T04:27:48.899Z,5.60
2019-05-07T04:30:17.570Z,5.60
2019-05-07T04:32:52.793Z,5.80
2019-05-07T04:35:29.454Z,5.60
2019-05-07T04:38:01.815Z,5.73
2019-05-07T04:40:29.328Z,5.40
2019-05-07T04:42:57.943Z,5.40
2019-05-07T04:45:26.457Z,5.57
2019-05-07T04:47:55.049Z,5.70
2019-05-07T04:50:41.428Z,5.53
2019-05-07T04:52:57.479Z,5.07
2019-05-07T04:55:26.066Z,5.43
2019-05-07T04:57:54.613Z,5.60
2019-05-07T05:00:23.249Z,5.80
2019-05-07T05:03:27.331Z,5.87
2019-05-07T05:05:55.968Z,5.50
2019-05-07T05:08:24.510Z,5.47
2019-05-07T05:10:54.001Z,6.40
2019-05-07T05:13:23.612Z,5.40
2019-05-07T05:15:52.838Z,5.67
2019-05-07T05:18:22.046Z,5.53
2019-05-07T05:21:08.252Z,6.00
2019-05-07T05:24:12.614Z,5.15
2019-05-07T05:26:42.181Z,5.58
2019-05-07T05:29:12.225Z,6.57
2019-05-07T05:31:42.126Z,6.00
2019-05-07T05:34:12.976Z,6.13
2019-05-07T05:36:42.542Z,5.17
2019-05-07T05:39:13.117Z,5.83
2019-05-07T05:41:43.182Z,6.53
2019-05-07T05:44:20.201Z,5.40
2019-05-07T05:46:48.721Z,6.10
2019-05-07T05:49:17.332Z,6.70
2019-05-07T05:52:03.752Z,6.63
2019-05-07T05:54:39.225Z,6.50
2019-05-07T05:57:32.497Z,6.93
2019-05-07T06:00:32.929Z,6.67
2019-05-07T06:03:22.807Z,6.13
2019-05-07T06:06:28.737Z,6.90
2019-05-07T06:09:15.485Z,7.50
2019-05-07T06:12:03.136Z,6.93
2019-05-07T06:14:35.630Z,7.93
2019-05-07T06:17:13.152Z,7.17
2019-05-07T06:19:51.849Z,8.53
2019-05-07T06:22:38.134Z,8.03
2019-05-07T06:25:16.269Z,7.27
2019-05-07T06:27:44.800Z,7.83
2019-05-07T06:30:13.758Z,8.15
2019-05-07T06:32:43.032Z,7.70
2019-05-07T06:35:12.518Z,8.18
2019-05-07T06:37:42.869Z,7.60
2019-05-07T06:40:36.669Z,7.73
2019-05-07T06:43:36.905Z,7.10
2019-05-07T06:46:05.778Z,7.22
2019-05-07T06:48:42.001Z,8.07
2019-05-07T06:51:04.599Z,6.62
2019-05-07T06:53:33.667Z,7.47
2019-05-07T06:56:03.031Z,8.50
2019-05-07T06:58:41.933Z,7.58
2019-05-07T07:01:35.574Z,6.77
2019-05-07T07:04:23.343Z,9.07
2019-05-07T07:07:26.322Z,7.80
2019-05-07T07:09:53.342Z,7.83
2019-05-07T07:12:26.031Z,7.37
2019-05-07T07:14:54.768Z,7.25
2019-05-07T07:17:24.005Z,2.30
2019-05-07T07:19:53.561Z,3.53
2019-05-07T07:22:22.313Z,7.30
2019-05-07T07:24:53.077Z,4.50
2019-05-07T07:27:22.695Z,7.78
2019-05-07T07:29:57.645Z,6.28
2019-05-07T07:32:32.395Z,6.05
2019-05-07T07:35:02.367Z,6.00
2019-05-07T07:37:35.142Z,6.17
2019-05-07T07:40:22.678Z,6.12
2019-05-07T07:42:52.056Z,6.07
2019-05-07T07:45:22.799Z,3.40
2019-05-07T07:47:53.080Z,5.07
2019-05-07T07:50:22.402Z,5.30
2019-05-07T07:52:52.948Z,5.40
2019-05-07T07:55:26.046Z,4.17
2019-05-07T07:58:05.846Z,5.75
2019-05-07T08:00:45.929Z,5.00
2019-05-07T08:03:15.930Z,3.27
2019-05-07T08:05:45.029Z,4.33
2019-05-07T08:08:13.633Z,5.55
2019-05-07T08:10:42.611Z,4.60
2019-05-07T08:13:12.253Z,2.37
2019-05-07T08:15:42.872Z,3.50
2019-05-07T08:18:11.977Z,4.20
2019-05-07T08:20:42.881Z,3.47
2019-05-07T08:23:12.222Z,5.47
2019-05-07T08:25:52.568Z,2.95
2019-05-07T08:28:22.864Z,3.10
2019-05-07T08:31:08.665Z,5.60
2019-05-07T08:33:44.366Z,4.85
2019-05-07T08:36:15.058Z,4.03
2019-05-07T08:38:52.612Z,3.95
2019-05-07T08:41:22.512Z,2.60
2019-05-07T08:44:07.324Z,2.90
2019-05-07T08:46:35.170Z,3.73
2019-05-07T08:49:04.377Z,4.33
2019-05-07T08:51:32.989Z,4.37
2019-05-07T08:54:07.410Z,3.70
2019-05-07T08:56:37.517Z,2.37
2019-05-07T08:59:06.592Z,2.77
2019-05-07T09:01:36.189Z,1.82
2019-05-07T09:04:04.969Z,3.08
2019-05-07T09:06:33.550Z,3.50
2019-05-07T09:09:04.487Z,2.50
2019-05-07T09:11:33.059Z,3.57
2019-05-07T09:14:01.889Z,4.08
2019-05-07T09:16:31.951Z,2.53
2019-05-07T09:19:02.165Z,3.87
2019-05-07T09:21:32.162Z,3.60
2019-05-07T09:24:02.521Z,4.33
2019-05-07T09:26:48.893Z,3.53
2019-05-07T09:29:32.669Z,3.90
2019-05-07T09:32:22.617Z,1.12
2019-05-07T09:34:52.059Z,4.17
2019-05-07T09:37:24.731Z,4.03
2019-05-07T09:39:53.357Z,3.93
2019-05-07T09:42:22.579Z,4.87
2019-05-07T09:44:52.945Z,3.87
2019-05-07T09:47:22.029Z,1.98
2019-05-07T09:50:02.084Z,2.37
2019-05-07T09:52:22.861Z,2.72
2019-05-07T09:54:52.263Z,2.27
2019-05-07T09:57:28.275Z,4.40
2019-05-07T09:59:53.019Z,3.85
2019-05-07T10:02:22.707Z,3.73
2019-05-07T10:04:52.648Z,4.40
2019-05-07T10:07:22.300Z,3.63
2019-05-07T10:09:52.325Z,2.67
2019-05-07T10:12:30.193Z,2.57
2019-05-07T10:14:59.340Z,2.55
2019-05-07T10:17:59.355Z,4.13
2019-05-07T10:20:36.753Z,3.50
2019-05-07T10:23:05.393Z,3.37
2019-05-07T10:25:40.245Z,1.12
2019-05-07T10:28:08.862Z,1.87
2019-05-07T10:30:37.421Z,2.15
2019-05-07T10:33:06.083Z,3.57
2019-05-07T10:35:34.715Z,3.27
2019-05-07T10:38:03.302Z,1.75
2019-05-07T10:40:32.740Z,3.80
2019-05-07T10:43:01.465Z,3.02
2019-05-07T10:45:45.665Z,1.37
2019-05-07T10:48:32.301Z,1.73
2019-05-07T10:51:02.106Z,1.70
2019-05-07T10:53:32.035Z,1.73
2019-05-07T10:56:02.534Z,3.25
2019-05-07T10:58:32.056Z,1.67
2019-05-07T11:01:02.946Z,1.47
2019-05-07T11:03:32.387Z,3.70
2019-05-07T11:06:01.189Z,0.80
2019-05-07T11:08:29.693Z,3.20
2019-05-07T11:10:58.565Z,1.37
2019-05-07T11:13:27.161Z,1.37
2019-05-07T11:16:02.510Z,2.00
2019-05-07T11:18:35.993Z,2.33
2019-05-07T11:21:04.798Z,3.50
2019-05-07T11:23:33.409Z,2.93
2019-05-07T11:26:02.545Z,2.80
2019-05-07T11:28:32.309Z,3.80
2019-05-07T11:31:02.037Z,4.57
2019-05-07T11:33:32.544Z,2.10
2019-05-07T11:36:02.266Z,2.55
2019-05-07T11:38:33.155Z,3.20
2019-05-07T11:41:02.383Z,2.77
2019-05-07T11:44:05.509Z,3.55
2019-05-07T11:46:56.425Z,1.50
2019-05-07T11:49:46.965Z,3.12
2019-05-07T11:52:18.121Z,1.20
2019-05-07T11:54:46.725Z,2.70
2019-05-07T11:57:15.258Z,3.33
2019-05-07T11:59:43.870Z,1.30
2019-05-07T12:02:12.546Z,1.53
2019-05-07T12:04:42.249Z,3.85
2019-05-07T12:07:11.907Z,3.22
2019-05-07T12:09:40.606Z,1.07
2019-05-07T12:12:09.185Z,0.83
2019-05-07T12:14:37.818Z,3.03
2019-05-07T12:17:06.401Z,0.73
2019-05-07T12:19:34.917Z,1.70
2019-05-07T12:22:04.595Z,2.72
2019-05-07T12:24:33.181Z,1.03
2019-05-07T12:27:02.636Z,1.42
2019-05-07T12:29:32.343Z,2.50
2019-05-07T12:32:26.169Z,2.97
2019-05-07T12:35:02.301Z,3.07
2019-05-07T12:37:32.742Z,3.20
2019-05-07T12:40:01.841Z,1.07
2019-05-07T12:42:32.722Z,3.55
2019-05-07T12:45:02.291Z,2.27
2019-05-07T12:47:32.117Z,2.87
2019-05-07T12:50:00.626Z,2.52
2019-05-07T12:52:55.727Z,1.92
2019-05-07T12:55:29.715Z,1.40
2019-05-07T12:57:58.378Z,3.45
2019-05-07T13:00:44.854Z,2.57
2019-05-07T13:03:44.669Z,3.00
2019-05-07T13:06:13.273Z,3.37
2019-05-07T13:08:42.085Z,2.10
2019-05-07T13:11:13.069Z,2.45
2019-05-07T13:13:42.353Z,2.65
2019-05-07T13:16:12.820Z,3.40
2019-05-07T13:18:42.272Z,3.98
2019-05-07T13:21:11.894Z,3.50
2019-05-07T13:23:42.217Z,2.77
2019-05-07T13:26:10.840Z,2.87
2019-05-07T13:28:41.979Z,3.55
2019-05-07T13:31:12.461Z,3.80
2019-05-07T13:33:42.091Z,2.92
2019-05-07T13:36:12.318Z,5.00
2019-05-07T13:38:59.637Z,4.20
2019-05-07T13:41:53.315Z,3.45
2019-05-07T13:44:49.299Z,3.55
2019-05-07T13:47:28.917Z,0.47
2019-05-07T13:49:57.641Z,1.00
2019-05-07T13:52:26.264Z,0.80
2019-05-07T13:54:54.865Z,2.77
2019-05-07T13:57:23.973Z,0.82
2019-05-07T13:59:53.244Z,3.40
2019-05-07T14:02:23.313Z,2.33
2019-05-07T14:04:52.650Z,3.05
2019-05-07T14:07:21.828Z,1.20
2019-05-07T14:09:52.528Z,2.07
2019-05-07T14:12:22.732Z,3.85
2019-05-07T14:14:53.002Z,3.43
2019-05-07T14:17:22.182Z,2.90
2019-05-07T14:19:52.830Z,3.35
2019-05-07T14:22:22.619Z,4.10
2019-05-07T14:24:52.935Z,3.57
2019-05-07T14:27:21.645Z,4.10
2019-05-07T14:29:51.979Z,2.77
2019-05-07T14:32:54.645Z,2.70
2019-05-07T14:35:32.199Z,3.70
2019-05-07T14:38:05.117Z,4.17
2019-05-07T14:40:33.709Z,3.40
2019-05-07T14:43:12.597Z,2.55
2019-05-07T14:45:42.093Z,3.10
2019-05-07T14:48:12.131Z,1.72
2019-05-07T14:50:41.980Z,3.33
2019-05-07T14:53:11.982Z,3.02
2019-05-07T14:55:41.877Z,2.27
2019-05-07T14:58:12.414Z,3.40
2019-05-07T15:00:42.747Z,0.60
2019-05-07T15:03:12.485Z,2.80
2019-05-07T15:05:42.220Z,2.65
2019-05-07T15:08:13.940Z,3.65
2019-05-07T15:10:41.936Z,3.62
2019-05-07T15:15:53.363Z,3.55
2019-05-07T15:18:26.101Z,3.77
2019-05-07T15:20:54.802Z,1.02
2019-05-07T15:23:32.693Z,4.00
2019-05-07T15:26:04.521Z,4.40
2019-05-07T15:28:32.284Z,3.60
2019-05-07T15:31:21.521Z,3.77
2019-05-07T15:33:52.166Z,3.77
2019-05-07T15:36:20.312Z,2.90
2019-05-07T15:38:49.057Z,3.10
2019-05-07T15:41:17.570Z,3.02
2019-05-07T15:43:46.387Z,3.80
2019-05-07T15:46:15.070Z,2.67
2019-05-07T15:48:43.656Z,3.47
2019-05-07T15:51:12.791Z,2.67
2019-05-07T15:53:52.189Z,3.97
2019-05-07T15:56:21.904Z,0.80
2019-05-07T15:58:51.717Z,0.87
2019-05-07T16:01:22.227Z,2.90
2019-05-07T16:03:52.072Z,3.35
2019-05-07T16:06:22.021Z,0.55
2019-05-07T16:08:56.486Z,3.97
2019-05-07T16:11:25.085Z,3.50
2019-05-07T16:14:28.173Z,4.20
2019-05-07T16:17:03.398Z,0.35
2019-05-07T16:19:32.218Z,2.00
2019-05-07T16:22:04.982Z,1.05
2019-05-07T16:24:33.661Z,2.67
2019-05-07T16:27:04.927Z,2.23
2019-05-07T16:29:35.601Z,2.43
2019-05-07T16:32:03.102Z,2.50
2019-05-07T16:34:32.541Z,2.37
2019-05-07T16:37:03.531Z,1.70
2019-05-07T16:39:32.642Z,2.05
2019-05-07T16:42:01.892Z,2.90
2019-05-07T16:44:33.098Z,2.75
2019-05-07T16:47:02.859Z,2.87
2019-05-07T16:49:32.561Z,2.97
2019-05-07T16:52:01.806Z,2.40
2019-05-07T16:54:30.585Z,2.87
2019-05-07T16:57:28.621Z,3.10
2019-05-07T16:59:57.310Z,2.80
2019-05-07T17:02:29.025Z,2.90
2019-05-07T17:05:08.885Z,2.90
2019-05-07T17:07:42.697Z,3.58
2019-05-07T17:10:11.743Z,2.92
2019-05-07T17:12:41.861Z,3.40
2019-05-07T17:15:12.368Z,3.40
2019-05-07T17:17:42.783Z,2.87
2019-05-07T17:20:12.860Z,3.58
2019-05-07T17:22:42.715Z,2.43
2019-05-07T17:25:29.645Z,2.95
2019-05-07T17:27:58.286Z,3.40
2019-05-07T17:30:26.892Z,3.20
2019-05-07T17:32:56.541Z,3.20
2019-05-07T17:35:25.057Z,3.20
2019-05-07T17:38:06.073Z,3.57
2019-05-07T17:40:23.799Z,3.58
2019-05-07T17:42:52.611Z,3.43
2019-05-07T17:45:22.763Z,3.70
2019-05-07T17:47:52.360Z,3.52
2019-05-07T17:50:24.802Z,3.13
2019-05-07T17:52:53.488Z,3.40
2019-05-07T17:55:22.362Z,3.30
2019-05-07T17:57:52.382Z,3.08
2019-05-07T18:00:22.104Z,3.40
2019-05-07T18:03:13.232Z,3.60
2019-05-07T18:05:42.436Z,3.77
2019-05-07T18:08:12.626Z,3.58
2019-05-07T18:10:42.553Z,3.50
2019-05-07T18:13:11.981Z,3.62
2019-05-07T18:15:42.789Z,4.15
2019-05-07T18:18:12.945Z,3.72
2019-05-07T18:20:42.199Z,3.77
2019-05-07T18:23:16.679Z,4.40
2019-05-07T18:25:42.893Z,4.35
2019-05-07T18:28:12.565Z,5.00
2019-05-07T18:30:41.249Z,3.73
2019-05-07T18:33:24.298Z,3.92
2019-05-07T18:35:52.817Z,3.77
2019-05-07T18:38:22.391Z,3.40
2019-05-07T18:40:52.814Z,3.20
2019-05-07T18:43:22.616Z,3.77
2019-05-07T18:45:51.772Z,3.73
2019-05-07T18:48:22.433Z,4.50
2019-05-07T18:50:52.177Z,3.50
2019-05-07T18:53:22.723Z,3.80
2019-05-07T18:55:51.697Z,4.05
2019-05-07T18:58:22.435Z,4.20
2019-05-07T19:00:54.292Z,3.73
2019-05-07T19:03:25.259Z,4.67
2019-05-07T19:05:53.253Z,3.77
2019-05-07T19:08:22.910Z,4.07
2019-05-07T19:10:52.210Z,4.03
2019-05-07T19:13:22.215Z,3.47
2019-05-07T19:15:52.720Z,4.47
2019-05-07T19:18:22.806Z,3.35
2019-05-07T19:20:52.995Z,4.00
2019-05-07T19:23:22.295Z,4.83
2019-05-07T19:25:52.282Z,4.00
2019-05-07T19:28:22.404Z,4.35
2019-05-07T19:30:52.845Z,4.28
2019-05-07T19:33:26.741Z,3.17
2019-05-07T19:35:52.947Z,3.73
2019-05-07T19:38:21.793Z,4.15
2019-05-07T19:40:52.616Z,4.03
2019-05-07T19:43:20.761Z,4.08
2019-05-07T19:45:49.312Z,4.13
2019-05-07T19:48:17.914Z,4.05
2019-05-07T19:50:46.494Z,4.43
2019-05-07T19:53:15.096Z,4.90
2019-05-07T19:56:04.814Z,4.17
2019-05-07T19:58:33.746Z,4.67
2019-05-07T20:01:03.360Z,4.63
2019-05-07T20:03:32.190Z,4.40
2019-05-07T20:06:02.450Z,4.23
2019-05-07T20:08:32.285Z,4.28
2019-05-07T20:11:06.246Z,4.33
2019-05-07T20:13:34.849Z,4.05
2019-05-07T20:16:12.253Z,4.97
2019-05-07T20:18:42.849Z,4.50
2019-05-07T20:21:12.347Z,4.83
2019-05-07T20:23:43.212Z,3.87
2019-05-07T20:26:12.594Z,4.72
2019-05-07T20:28:41.845Z,4.62
2019-05-07T20:31:12.220Z,4.28
2019-05-07T20:33:42.225Z,5.00
2019-05-07T20:36:11.054Z,4.20
2019-05-07T20:38:39.637Z,4.27
2019-05-07T20:41:08.248Z,5.20
2019-05-07T20:43:36.830Z,4.87
2019-05-07T20:46:05.481Z,5.33
2019-05-07T20:48:34.073Z,4.60
2019-05-07T20:51:02.590Z,4.83
2019-05-07T20:53:49.010Z,4.37
2019-05-07T20:56:19.154Z,4.42
2019-05-07T20:58:47.737Z,5.17
2019-05-07T21:01:16.345Z,4.50
2019-05-07T21:03:44.947Z,4.72
2019-05-07T21:06:14.293Z,4.55
2019-05-07T21:08:42.940Z,5.07
2019-05-07T21:11:12.002Z,4.43
2019-05-07T21:13:42.624Z,4.87
2019-05-07T21:16:12.660Z,4.63
2019-05-07T21:18:42.151Z,5.00
2019-05-07T21:21:12.505Z,4.55
2019-05-07T21:23:43.223Z,5.20
2019-05-07T21:26:13.039Z,4.37
2019-05-07T21:28:43.120Z,4.40
2019-05-07T21:31:12.114Z,4.50
2019-05-07T21:33:43.545Z,4.27
2019-05-07T21:36:12.356Z,5.13
2019-05-07T21:38:42.557Z,4.90
2019-05-07T21:41:12.882Z,5.00
2019-05-07T21:43:45.565Z,4.45
2019-05-07T21:46:12.821Z,4.90
2019-05-07T21:48:41.769Z,4.45
2019-05-07T21:51:12.159Z,4.67
2019-05-07T21:53:47.329Z,4.50
2019-05-07T21:56:26.234Z,4.20
2019-05-07T21:58:58.341Z,4.15
2019-05-07T22:01:32.716Z,4.53
2019-05-07T22:04:01.943Z,4.07
2019-05-07T22:06:30.669Z,4.45
2019-05-07T22:08:59.214Z,2.63
2019-05-07T22:11:27.875Z,4.85
2019-05-07T22:13:56.397Z,4.63
2019-05-07T22:16:25.038Z,4.70
2019-05-07T22:18:53.547Z,4.08
2019-05-07T22:21:22.146Z,4.73
2019-05-07T22:23:52.210Z,5.37
2019-05-07T22:26:25.629Z,4.33
2019-05-07T22:28:53.815Z,4.33
2019-05-07T22:31:37.163Z,4.78
2019-05-07T22:34:25.013Z,4.58
2019-05-07T22:36:55.400Z,3.73
2019-05-07T22:39:34.373Z,4.20
2019-05-07T22:42:04.601Z,4.50
2019-05-07T22:44:33.555Z,4.07
2019-05-07T22:47:18.787Z,5.03
2019-05-07T22:49:49.037Z,4.37
2019-05-07T22:52:17.717Z,2.57
2019-05-07T22:54:46.325Z,3.67
2019-05-07T22:57:42.043Z,3.83
2019-05-07T23:00:13.630Z,4.03
2019-05-07T23:02:43.849Z,4.33
2019-05-07T23:05:12.549Z,3.10
2019-05-07T23:07:43.896Z,1.77
2019-05-07T23:10:12.378Z,4.77
2019-05-07T23:12:40.964Z,4.12
2019-05-07T23:15:11.819Z,4.20
2019-05-07T23:17:39.801Z,4.33
2019-05-07T23:20:08.425Z,4.57
2019-05-07T23:22:36.929Z,4.33
2019-05-07T23:25:05.481Z,4.57
2019-05-07T23:27:34.008Z,4.40
2019-05-07T23:30:02.772Z,3.92
2019-05-07T23:32:32.902Z,4.33
2019-05-07T23:35:02.026Z,3.72
2019-05-07T23:37:32.964Z,3.20
2019-05-07T23:40:04.121Z,4.05
2019-05-07T23:42:34.834Z,4.40
2019-05-07T23:45:03.461Z,3.80
2019-05-07T23:47:33.041Z,4.50
2019-05-07T23:50:02.112Z,3.22
2019-05-07T23:52:30.761Z,4.20
2019-05-07T23:54:59.273Z,4.00
2019-05-07T23:57:27.786Z,3.97
2019-05-07T23:59:56.664Z,3.95
